Time;durP1;ratioP1;P1;durP2;ratioP2;P2;SDS_P1;SDS_P2;PMS_P1;PMS_P2;Temp;Humidity;BMP_temperature;BMP_pressure;BME280_temperature;BME280_humidity;BME280_pressure;Samples;Min_cycle;Max_cycle;Signal;HPM_P1;HPM_P2
2022/03/21 00:02:05;;;;;;;64.50;30.80;;;;;;;-2.84;59.39;102364.73;215461;1274;139867;-70
2022/03/21 00:07:10;;;;;;;56.10;28.40;;;;;;;-2.80;59.78;102366.65;214175;1274;140907;-66
2022/03/21 00:12:15;;;;;;;56.20;27.20;;;;;;;-2.86;59.94;102357.36;215578;1274;141342;-70
2022/03/21 00:17:19;;;;;;;69.10;30.30;;;;;;;-2.99;59.86;102361.58;215946;1273;140301;-71
2022/03/21 00:22:24;;;;;;;63.90;31.10;;;;;;;-3.12;60.03;102361.23;215873;1274;141814;-66
2022/03/21 00:27:27;;;;;;;57.50;30.10;;;;;;;-3.19;60.16;102354.14;215497;1274;141066;-73
2022/03/21 00:32:32;;;;;;;55.30;26.30;;;;;;;-3.23;60.11;102354.33;216236;1274;141119;-68
2022/03/21 00:37:38;;;;;;;56.60;30.80;;;;;;;-3.25;60.38;102352.52;216076;1273;140075;-71
2022/03/21 00:42:44;;;;;;;58.60;31.20;;;;;;;-3.23;60.16;102350.34;215342;1274;140993;-69
2022/03/21 00:47:49;;;;;;;65.30;29.10;;;;;;;-3.22;59.91;102353.05;215395;1274;140977;-68
2022/03/21 00:52:56;;;;;;;57.20;29.70;;;;;;;-3.28;60.26;102356.01;214345;1274;139965;-67
2022/03/21 00:58:01;;;;;;;61.10;29.60;;;;;;;-3.38;60.30;102351.67;214572;1274;140512;-68
2022/03/21 01:03:05;;;;;;;72.80;34.00;;;;;;;-3.40;60.41;102356.14;214048;1274;140510;-67
2022/03/21 01:08:09;;;;;;;55.30;27.40;;;;;;;-3.36;60.82;102356.11;214457;1274;141424;-66
2022/03/21 01:13:18;;;;;;;60.50;28.30;;;;;;;-3.45;60.77;102352.54;214220;1273;141824;-65
2022/03/21 01:18:22;;;;;;;61.50;29.30;;;;;;;-3.57;60.91;102356.00;214753;1274;141959;-68
2022/03/21 01:23:27;;;;;;;55.80;29.80;;;;;;;-3.68;61.40;102351.73;214057;1274;142067;-65
2022/03/21 01:28:32;;;;;;;64.60;31.90;;;;;;;-3.71;61.80;102353.96;214439;1274;139800;-65
2022/03/21 01:33:37;;;;;;;64.00;31.00;;;;;;;-3.75;62.14;102355.70;213140;1276;141548;-66
2022/03/21 01:38:42;;;;;;;61.00;29.70;;;;;;;-3.75;62.25;102352.89;214780;1274;141524;-68
2022/03/21 01:44:17;;;;;;;57.60;29.80;;;;;;;-3.76;62.35;102349.13;213514;1274;139950;-73
2022/03/21 01:49:22;;;;;;;47.00;26.80;;;;;;;-3.85;62.50;102346.98;214493;1273;140292;-72
2022/03/21 01:59:50;;;;;;;60.70;32.50;;;;;;;-4.00;62.86;102340.83;215106;1274;140354;-70
2022/03/21 02:04:55;;;;;;;66.60;30.80;;;;;;;-4.02;62.79;102336.41;214501;1274;141582;-68
2022/03/21 02:09:59;;;;;;;55.20;27.30;;;;;;;-4.01;62.74;102330.11;214411;1274;142696;-70
2022/03/21 02:15:04;;;;;;;68.00;31.40;;;;;;;-4.03;62.87;102331.98;214621;1274;141947;-66
2022/03/21 02:20:11;;;;;;;58.60;28.40;;;;;;;-4.04;62.99;102330.28;215130;1274;141131;-64
2022/03/21 02:25:35;;;;;;;59.80;25.90;;;;;;;-4.06;63.09;102327.21;215157;1274;140978;-65
2022/03/21 02:30:42;;;;;;;59.40;30.00;;;;;;;-4.09;63.45;102329.96;216190;1273;142171;-73
2022/03/21 02:35:48;;;;;;;52.70;26.00;;;;;;;-4.05;63.60;102330.32;216168;1274;141743;-69
2022/03/21 02:40:53;;;;;;;57.10;25.10;;;;;;;-4.06;63.53;102333.16;216193;1274;141323;-67
2022/03/21 02:46:06;;;;;;;54.70;26.70;;;;;;;-4.12;63.72;102334.32;215400;1274;140613;-65
2022/03/21 02:51:11;;;;;;;51.00;25.30;;;;;;;-4.16;63.76;102340.58;214942;1274;141001;-66
2022/03/21 02:56:15;;;;;;;49.40;25.00;;;;;;;-4.14;63.97;102339.23;214875;1274;141131;-69
2022/03/21 03:01:20;;;;;;;49.10;22.90;;;;;;;-4.20;63.93;102337.64;214626;1274;141707;-66
2022/03/21 03:06:24;;;;;;;52.50;22.80;;;;;;;-4.29;63.90;102339.86;215113;1274;142525;-67
2022/03/21 03:11:28;;;;;;;50.70;24.20;;;;;;;-4.33;64.19;102343.36;215261;1273;234376;-66
2022/03/21 03:16:32;;;;;;;42.20;22.30;;;;;;;-4.38;64.25;102340.80;214540;1273;139689;-64
2022/03/21 03:21:41;;;;;;;50.50;24.50;;;;;;;-4.41;64.48;102342.69;213820;1274;140271;-68
2022/03/21 03:26:46;;;;;;;51.70;27.10;;;;;;;-4.44;64.56;102347.14;214312;1274;140101;-69
2022/03/21 03:31:54;;;;;;;37.00;20.90;;;;;;;-4.46;64.55;102348.64;214669;1274;141242;-67
2022/03/21 03:36:58;;;;;;;42.00;23.80;;;;;;;-4.47;64.55;102352.20;214146;1274;140157;-66
2022/03/21 03:42:03;;;;;;;40.20;24.00;;;;;;;-4.52;64.54;102349.97;213391;1274;140670;-66
2022/03/21 03:47:07;;;;;;;36.70;20.50;;;;;;;-4.54;64.71;102347.29;213646;1274;141003;-68
2022/03/21 03:52:11;;;;;;;39.20;23.40;;;;;;;-4.56;65.02;102350.02;213848;1274;231000;-65
2022/03/21 03:57:15;;;;;;;48.00;23.50;;;;;;;-4.64;65.09;102346.23;214616;1274;140318;-66
2022/03/21 04:02:18;;;;;;;49.40;24.40;;;;;;;-4.69;65.43;102342.31;214382;1274;139922;-67
2022/03/21 04:07:24;;;;;;;46.80;23.30;;;;;;;-4.71;65.53;102339.30;214751;1274;140389;-67
2022/03/21 04:12:29;;;;;;;55.90;22.60;;;;;;;-4.70;65.40;102336.83;214278;1274;140028;-67
2022/03/21 04:17:35;;;;;;;52.10;26.30;;;;;;;-4.72;65.51;102337.45;214836;1273;164213;-66
2022/03/21 04:22:39;;;;;;;49.10;24.10;;;;;;;-4.73;65.43;102337.98;215456;1274;141904;-69
2022/03/21 04:27:43;;;;;;;53.10;20.80;;;;;;;-4.72;65.49;102343.83;213203;1274;141003;-68
2022/03/21 04:32:49;;;;;;;52.00;25.20;;;;;;;-4.75;65.63;102345.72;214766;1274;140355;-64
2022/03/21 04:37:54;;;;;;;50.70;24.10;;;;;;;-4.79;65.68;102347.30;215579;1274;140100;-67
2022/03/21 04:42:58;;;;;;;56.60;23.00;;;;;;;-4.81;65.65;102346.86;215919;1274;140437;-68
2022/03/21 04:48:06;;;;;;;46.10;22.10;;;;;;;-4.81;65.64;102346.54;216018;1274;140727;-68
2022/03/21 04:53:10;;;;;;;50.50;25.60;;;;;;;-4.78;65.82;102347.76;214617;1273;141435;-67
2022/03/21 04:58:14;;;;;;;49.70;29.80;;;;;;;-4.77;65.91;102349.45;216172;1274;140320;-68
2022/03/21 05:03:19;;;;;;;44.30;24.90;;;;;;;-4.73;66.29;102350.84;214250;1274;206739;-66
2022/03/21 05:08:24;;;;;;;47.90;24.80;;;;;;;-4.68;66.22;102353.20;214821;1274;140062;-66
2022/03/21 05:13:29;;;;;;;63.40;26.50;;;;;;;-4.63;66.31;102359.57;214283;1274;140030;-66
2022/03/21 05:18:35;;;;;;;50.20;26.60;;;;;;;-4.57;66.35;102359.96;216166;1274;139666;-67
2022/03/21 05:45:19;;;;;;;61.00;27.80;;;;;;;-3.84;66.84;102372.66;214539;1274;140912;-68
2022/03/21 05:50:24;;;;;;;46.80;28.90;;;;;;;-3.66;66.69;102374.00;213442;1274;141330;-66
2022/03/21 05:55:30;;;;;;;53.00;28.90;;;;;;;-3.49;66.83;102374.49;213938;1273;141541;-66
2022/03/21 06:00:36;;;;;;;87.60;42.00;;;;;;;-3.30;66.74;102373.15;214129;1274;141223;-66
2022/03/21 06:05:41;;;;;;;91.70;45.80;;;;;;;-3.11;66.72;102377.67;213879;1274;204907;-66
2022/03/21 06:10:47;;;;;;;94.70;48.90;;;;;;;-2.84;66.53;102377.80;214516;1272;140880;-67
2022/03/21 06:15:52;;;;;;;97.60;38.30;;;;;;;-2.54;66.41;102379.23;215008;1272;141836;-67
2022/03/21 06:20:57;;;;;;;77.50;38.00;;;;;;;-2.17;66.25;102376.28;214770;1273;142389;-67
2022/03/21 06:26:03;;;;;;;78.70;37.30;;;;;;;-1.80;66.29;102381.25;213688;1274;139553;-67
2022/03/21 06:31:07;;;;;;;73.90;36.50;;;;;;;-1.43;66.28;102382.71;214535;1276;143245;-69
2022/03/21 06:36:13;;;;;;;74.80;35.70;;;;;;;-1.12;66.13;102381.99;215533;1274;140468;-65
2022/03/21 06:41:17;;;;;;;70.30;38.40;;;;;;;-0.80;65.40;102382.13;215523;1274;159774;-64
2022/03/21 06:46:20;;;;;;;48.60;27.00;;;;;;;-0.48;64.96;102378.48;216197;1274;140441;-70
2022/03/21 06:51:24;;;;;;;37.50;21.60;;;;;;;-0.16;64.58;102381.11;216343;1274;140479;-71
2022/03/21 06:56:29;;;;;;;45.80;22.20;;;;;;;0.15;64.04;102387.62;215416;1274;140460;-67
2022/03/21 07:01:36;;;;;;;33.10;17.10;;;;;;;0.51;63.59;102383.44;216215;1274;140493;-71
2022/03/21 07:06:41;;;;;;;36.00;17.30;;;;;;;1.04;63.67;102383.03;215176;1274;142128;-68
2022/03/21 07:11:46;;;;;;;33.20;19.10;;;;;;;1.65;62.72;102385.27;216059;1274;140242;-71
2022/03/21 07:16:51;;;;;;;27.90;18.30;;;;;;;2.64;62.32;102381.75;216153;1274;139683;-71
2022/03/21 07:21:55;;;;;;;33.40;18.60;;;;;;;4.58;60.87;102376.15;214353;1274;139690;-68
2022/03/21 07:27:01;;;;;;;31.20;18.90;;;;;;;6.70;58.19;102374.98;214863;1274;140597;-67
2022/03/21 07:32:07;;;;;;;30.60;16.30;;;;;;;8.62;55.96;102375.82;214647;1274;140117;-68
2022/03/21 07:37:11;;;;;;;25.60;14.50;;;;;;;10.30;53.11;102368.93;214990;1274;140123;-68
2022/03/21 07:42:19;;;;;;;20.90;13.80;;;;;;;11.52;50.96;102374.13;214388;1273;140257;-69
2022/03/21 07:47:23;;;;;;;23.50;15.90;;;;;;;12.33;49.05;102371.70;214711;1274;140855;-69
2022/03/21 07:52:29;;;;;;;20.30;11.70;;;;;;;12.75;46.42;102369.73;215056;1274;141331;-71
2022/03/21 07:57:33;;;;;;;25.70;15.60;;;;;;;12.90;45.13;102368.83;214561;1273;140816;-70
2022/03/21 08:02:38;;;;;;;22.20;12.00;;;;;;;13.00;44.41;102371.44;214418;1273;160730;-70
2022/03/21 08:07:43;;;;;;;20.00;12.40;;;;;;;13.07;42.43;102371.56;213874;1273;141918;-69
2022/03/21 08:12:48;;;;;;;24.00;14.80;;;;;;;12.73;40.56;102368.21;213570;1274;142278;-69
2022/03/21 08:17:57;;;;;;;19.50;12.90;;;;;;;12.61;41.07;102370.18;215016;1274;142316;-72
2022/03/21 08:23:10;;;;;;;26.50;12.30;;;;;;;12.62;40.04;102371.98;213845;1274;142462;-69
2022/03/21 08:28:17;;;;;;;16.40;9.60;;;;;;;12.44;39.46;102364.92;214030;1274;141761;-69
2022/03/21 08:33:22;;;;;;;17.40;10.70;;;;;;;12.43;38.98;102363.27;215344;1274;141067;-68
2022/03/21 08:38:26;;;;;;;16.00;10.50;;;;;;;12.48;38.79;102361.81;215469;1274;140215;-71
2022/03/21 08:43:32;;;;;;;16.60;10.40;;;;;;;12.54;38.05;102359.64;214865;1274;140461;-71
2022/03/21 08:54:21;;;;;;;15.20;9.80;;;;;;;12.35;36.81;102354.51;215267;1272;141363;-70
2022/03/21 08:59:26;;;;;;;13.20;9.00;;;;;;;12.50;36.49;102354.40;213620;1274;141733;-71
2022/03/21 09:04:30;;;;;;;17.20;8.90;;;;;;;12.49;35.98;102355.08;215836;1274;141697;-72
2022/03/21 09:09:35;;;;;;;11.80;9.30;;;;;;;12.62;35.76;102354.15;215558;1271;141951;-71
2022/03/21 09:14:40;;;;;;;12.90;8.00;;;;;;;12.59;34.26;102351.35;214832;1274;142375;-72
2022/03/21 09:19:45;;;;;;;14.90;10.70;;;;;;;12.50;34.33;102347.08;214195;1274;142174;-70
2022/03/21 09:24:51;;;;;;;17.60;9.60;;;;;;;12.63;33.94;102349.59;215320;1272;141017;-71
2022/03/21 09:29:56;;;;;;;19.50;9.00;;;;;;;12.55;33.11;102345.04;214541;1274;141419;-70
2022/03/21 09:35:00;;;;;;;9.10;7.20;;;;;;;12.58;33.63;102339.81;215088;1273;141724;-71
2022/03/21 09:40:06;;;;;;;13.40;6.30;;;;;;;12.79;33.54;102334.21;213892;1274;140707;-71
2022/03/21 09:45:12;;;;;;;11.70;7.90;;;;;;;13.00;33.10;102330.61;214877;1273;140315;-72
2022/03/21 09:50:17;;;;;;;11.30;7.50;;;;;;;13.15;33.09;102322.77;214355;1273;225236;-71
2022/03/21 09:55:24;;;;;;;10.20;7.30;;;;;;;13.28;32.75;102315.38;214080;1274;655733;-70
2022/03/21 10:00:28;;;;;;;13.50;9.20;;;;;;;13.37;32.85;102312.11;214519;1274;140328;-70
2022/03/21 10:05:38;;;;;;;14.70;7.70;;;;;;;13.52;32.70;102309.16;214211;1274;139761;-71
2022/03/21 10:11:05;;;;;;;11.70;7.50;;;;;;;13.57;31.81;102310.33;214899;1273;140060;-71
2022/03/21 10:16:12;;;;;;;14.00;7.50;;;;;;;13.62;32.02;102306.83;213945;1274;140047;-71
2022/03/21 10:21:17;;;;;;;10.60;6.90;;;;;;;13.87;31.88;102300.64;214003;1273;143322;-71
2022/03/21 10:26:36;;;;;;;10.10;7.80;;;;;;;13.93;30.91;102295.01;214259;1274;141397;-72
2022/03/21 10:31:48;;;;;;;17.20;8.40;;;;;;;13.81;30.82;102283.02;214885;1273;140844;-71
2022/03/21 10:36:59;;;;;;;12.10;8.70;;;;;;;13.93;31.22;102286.38;214392;1274;141243;-72
2022/03/21 10:42:09;;;;;;;8.70;7.50;;;;;;;14.05;30.46;102278.63;213662;1274;141434;-72
2022/03/21 10:47:14;;;;;;;13.30;7.50;;;;;;;14.07;30.35;102278.09;215108;1274;141168;-71
2022/03/21 10:52:21;;;;;;;10.80;7.60;;;;;;;14.06;29.86;102277.30;213556;1276;142158;-71
2022/03/21 10:57:36;;;;;;;10.30;7.70;;;;;;;14.02;29.64;102270.48;216074;1274;141370;-69
2022/03/21 11:02:53;;;;;;;10.00;7.40;;;;;;;13.90;29.26;102262.55;215175;1274;139711;-73
2022/03/21 11:08:01;;;;;;;11.50;8.10;;;;;;;13.94;29.33;102263.48;216124;1273;141325;-72
2022/03/21 11:13:07;;;;;;;11.00;7.90;;;;;;;13.99;29.06;102258.59;215839;1275;140413;-69
2022/03/21 11:18:11;;;;;;;14.60;9.20;;;;;;;14.06;29.28;102255.45;215877;1274;141864;-71
2022/03/21 11:23:15;;;;;;;11.50;9.00;;;;;;;14.25;29.04;102251.19;216066;1274;139963;-71
2022/03/21 11:28:40;;;;;;;13.10;9.50;;;;;;;14.35;28.69;102239.20;214430;1273;140185;-72
2022/03/21 11:33:47;;;;;;;11.70;8.20;;;;;;;14.31;28.71;102231.38;215610;1274;142594;-70
2022/03/21 11:39:00;;;;;;;9.20;8.00;;;;;;;14.34;28.66;102227.88;214689;1273;140104;-72
2022/03/21 11:44:04;;;;;;;11.00;8.50;;;;;;;14.30;28.28;102226.55;214505;1273;139940;-71
2022/03/21 11:49:31;;;;;;;11.30;7.20;;;;;;;14.35;28.58;102216.08;214644;1274;139629;-70
2022/03/21 11:54:37;;;;;;;9.70;8.40;;;;;;;14.40;27.83;102206.86;214943;1274;141017;-72
2022/03/21 11:59:41;;;;;;;12.00;8.90;;;;;;;14.24;27.23;102202.27;214563;1274;141303;-71
2022/03/21 12:05:00;;;;;;;10.20;8.10;;;;;;;14.14;27.73;102194.20;214393;1274;141008;-73
2022/03/21 12:10:07;;;;;;;12.50;9.20;;;;;;;14.20;27.68;102183.36;213958;1274;143017;-72
2022/03/21 12:15:31;;;;;;;7.60;6.80;;;;;;;14.18;27.44;102178.30;214025;1274;141019;-71
2022/03/21 12:20:54;;;;;;;17.50;9.10;;;;;;;14.26;27.64;102170.67;214340;1272;141189;-72
2022/03/21 12:25:58;;;;;;;14.00;8.50;;;;;;;14.37;27.69;102170.02;214321;1274;141055;-71
2022/03/21 12:31:26;;;;;;;13.80;8.10;;;;;;;14.46;27.45;102159.01;213779;1274;142814;-72
2022/03/21 12:36:33;;;;;;;11.20;8.70;;;;;;;14.58;27.56;102148.56;214363;1274;141742;-73
2022/03/21 12:41:40;;;;;;;12.80;9.10;;;;;;;14.55;27.33;102149.54;214586;1274;139841;-72
2022/03/21 12:46:47;;;;;;;16.50;10.60;;;;;;;14.54;27.10;102144.09;215294;1274;139825;-73
2022/03/21 12:51:57;;;;;;;17.00;10.10;;;;;;;14.46;27.06;102139.85;214745;1272;141857;-71
2022/03/21 12:57:06;;;;;;;16.10;10.70;;;;;;;14.51;27.61;102131.56;214491;1273;140844;-71
2022/03/21 13:02:27;;;;;;;16.00;10.70;;;;;;;14.51;27.19;102126.45;215108;1273;140715;-73
2022/03/21 13:13:00;;;;;;;9.40;7.10;;;;;;;14.55;27.17;102119.40;215649;1274;139854;-70
2022/03/21 13:18:05;;;;;;;13.80;9.10;;;;;;;14.54;27.24;102112.55;216100;1274;139632;-72
2022/03/21 13:23:11;;;;;;;9.50;8.40;;;;;;;14.49;26.99;102104.48;215842;1273;140049;-73
2022/03/21 13:28:21;;;;;;;13.70;9.80;;;;;;;14.41;27.00;102100.64;215505;1275;139505;-72
2022/03/21 13:33:27;;;;;;;;;;;;;;;14.28;26.85;102097.92;216192;1274;141204;-72
2022/03/21 13:38:34;;;;;;;;;;;;;;;14.19;27.40;102093.79;216976;1273;127076;-72
2022/03/21 13:43:39;;;;;;;14.70;9.90;;;;;;;14.21;27.29;102087.64;215993;1274;127628;-73
2022/03/21 13:48:50;;;;;;;136.50;17.80;;;;;;;14.26;27.13;102084.11;214560;1274;140142;-73
2022/03/21 13:54:15;;;;;;;22.20;11.40;;;;;;;14.31;27.51;102083.98;213851;1273;139997;-68
2022/03/21 13:59:21;;;;;;;15.90;9.90;;;;;;;14.30;27.53;102079.23;214006;1274;142628;-69
2022/03/21 14:04:26;;;;;;;;;;;;;;;14.32;27.49;102074.95;214340;1274;139783;-69
2022/03/21 14:09:31;;;;;;;17.40;10.50;;;;;;;14.27;27.71;102070.67;215398;1274;126504;-69
2022/03/21 14:14:36;;;;;;;14.00;10.10;;;;;;;14.23;27.92;102063.89;214723;1274;140760;-70
2022/03/21 14:19:45;;;;;;;15.60;10.90;;;;;;;14.13;27.77;102064.34;214993;1273;140574;-70
2022/03/21 14:24:50;;;;;;;22.20;12.70;;;;;;;14.12;27.92;102061.23;214159;1274;139803;-72
2022/03/21 14:29:55;;;;;;;15.90;10.40;;;;;;;14.10;27.87;102060.73;213331;1274;234987;-71
2022/03/21 14:34:59;;;;;;;14.80;11.20;;;;;;;14.02;27.97;102055.45;213745;1274;139829;-72
2022/03/21 14:40:04;;;;;;;15.10;11.20;;;;;;;13.91;27.89;102044.52;213389;1274;139830;-65
2022/03/21 14:45:10;;;;;;;25.50;12.40;;;;;;;13.84;28.12;102045.34;214371;1274;140672;-69
2022/03/21 14:50:14;;;;;;;18.90;11.30;;;;;;;13.80;28.20;102039.63;214650;1274;140561;-67
2022/03/21 14:55:18;;;;;;;15.40;8.60;;;;;;;13.74;27.87;102036.53;213489;1274;140958;-68
2022/03/21 15:00:23;;;;;;;16.60;11.00;;;;;;;13.57;28.17;102036.39;214216;1274;140997;-71
2022/03/21 15:05:29;;;;;;;29.30;10.80;;;;;;;13.49;28.25;102030.21;214453;1273;139839;-71
2022/03/21 15:10:35;;;;;;;17.20;9.70;;;;;;;13.45;28.37;102028.51;214739;1274;142624;-69
2022/03/21 15:15:40;;;;;;;16.60;12.20;;;;;;;13.42;28.64;102024.38;216064;1274;141514;-69
2022/03/21 15:20:45;;;;;;;13.50;10.90;;;;;;;13.36;28.39;102023.88;215177;1274;140970;-70
2022/03/21 15:25:51;;;;;;;25.40;10.20;;;;;;;13.23;28.34;102022.64;216043;1274;139961;-69
2022/03/21 15:30:56;;;;;;;16.30;10.60;;;;;;;13.11;28.37;102018.23;216026;1274;141842;-70
2022/03/21 15:41:42;;;;;;;19.90;9.40;;;;;;;12.95;28.48;102014.46;216277;1274;141860;-75
2022/03/21 15:46:46;;;;;;;17.50;9.20;;;;;;;12.81;28.50;102010.12;214102;1274;140947;-71
2022/03/21 15:51:51;;;;;;;17.40;10.00;;;;;;;12.67;28.69;102010.46;214623;1273;141785;-70
2022/03/21 15:56:55;;;;;;;12.50;10.30;;;;;;;12.53;29.37;102007.25;214304;1274;141588;-69
2022/03/21 16:02:00;;;;;;;14.30;9.40;;;;;;;12.36;29.33;102004.45;214831;1274;139943;-68
2022/03/21 16:07:04;;;;;;;16.10;8.40;;;;;;;12.18;29.76;102002.64;215115;1274;141730;-69
2022/03/21 16:12:09;;;;;;;16.20;9.40;;;;;;;12.01;29.76;102000.73;213485;1274;163873;-69
2022/03/21 16:17:15;;;;;;;23.40;11.10;;;;;;;11.85;29.66;102002.77;214352;1274;150612;-70
2022/03/21 16:22:18;;;;;;;20.50;10.80;;;;;;;11.66;30.02;101997.92;215041;1274;140487;-70
2022/03/21 16:27:24;;;;;;;22.00;9.70;;;;;;;11.47;30.32;101995.39;213411;1274;142127;-67
2022/03/21 16:32:28;;;;;;;16.20;11.20;;;;;;;11.26;30.47;101996.38;213804;1274;140828;-70
2022/03/21 16:37:33;;;;;;;18.00;10.40;;;;;;;11.01;30.96;101995.73;214626;1274;143842;-72
2022/03/21 16:42:37;;;;;;;18.70;11.00;;;;;;;10.78;31.02;102000.14;213945;1274;144370;-71
2022/03/21 16:47:41;;;;;;;20.80;11.40;;;;;;;10.59;31.38;102006.55;214751;1274;140527;-69
2022/03/21 16:52:45;;;;;;;30.60;13.10;;;;;;;10.37;32.12;102011.51;214056;1274;144249;-67
2022/03/21 16:57:49;;;;;;;35.00;14.60;;;;;;;10.13;32.54;102006.36;214968;1274;140423;-70
2022/03/21 17:02:54;;;;;;;25.10;15.50;;;;;;;9.86;33.04;102007.34;214507;1274;140175;-68
2022/03/21 17:07:59;;;;;;;16.90;13.40;;;;;;;9.56;33.25;102009.27;214804;1274;141347;-69
2022/03/21 17:13:04;;;;;;;32.70;15.20;;;;;;;9.29;33.47;102011.97;214151;1274;141059;-68
2022/03/21 17:23:32;;;;;;;27.90;14.60;;;;;;;8.74;34.18;102013.52;216155;1274;140849;-72
2022/03/21 17:28:38;;;;;;;32.00;16.00;;;;;;;8.48;34.71;102020.04;215836;1274;140666;-72
2022/03/21 17:33:44;;;;;;;30.00;15.50;;;;;;;8.23;35.30;102022.04;216344;1273;140000;-72
2022/03/21 17:38:48;;;;;;;30.70;16.90;;;;;;;8.00;35.53;102024.64;216155;1274;141135;-70
2022/03/21 17:43:52;;;;;;;39.00;17.30;;;;;;;7.77;36.03;102024.41;216269;1274;140553;-70
2022/03/21 17:48:58;;;;;;;36.60;18.30;;;;;;;7.53;36.89;102014.40;216064;1274;140853;-70
2022/03/21 17:54:02;;;;;;;36.20;19.70;;;;;;;7.30;37.52;102014.84;215459;1274;140351;-69
2022/03/21 17:59:06;;;;;;;42.30;19.10;;;;;;;7.10;37.74;102017.80;214534;1274;141403;-67
2022/03/21 18:04:11;;;;;;;35.30;17.60;;;;;;;6.91;39.04;102026.83;214398;1274;139765;-69
2022/03/21 18:09:18;;;;;;;42.10;18.80;;;;;;;6.64;39.99;102029.11;214321;1274;141343;-69
2022/03/21 18:14:22;;;;;;;35.20;19.50;;;;;;;6.40;40.82;102038.79;214178;1274;139782;-69
2022/03/21 18:19:50;;;;;;;46.20;20.90;;;;;;;6.12;41.13;102038.59;214578;1274;140644;-71
2022/03/21 18:24:56;;;;;;;45.90;24.30;;;;;;;5.84;41.62;102040.38;213666;1274;142659;-71
2022/03/21 18:30:01;;;;;;;41.30;19.90;;;;;;;5.58;41.86;102043.97;212906;1274;140091;-72
2022/03/21 18:35:07;;;;;;;48.20;23.10;;;;;;;5.25;42.73;102041.41;214300;1274;139873;-68
2022/03/21 18:40:12;;;;;;;41.70;22.60;;;;;;;5.05;43.42;102039.77;214457;1274;140895;-73
2022/03/21 18:45:22;;;;;;;35.70;19.20;;;;;;;4.86;43.63;102044.02;214460;1274;139659;-74
2022/03/21 18:50:27;;;;;;;29.00;15.70;;;;;;;4.67;44.48;102047.91;214649;1274;139613;-73
2022/03/21 18:55:36;;;;;;;37.20;20.70;;;;;;;4.32;44.83;102048.29;214245;1274;140523;-72
2022/03/21 19:00:42;;;;;;;38.50;19.60;;;;;;;4.01;45.51;102051.41;214324;1274;140600;-72
2022/03/21 19:05:48;;;;;;;43.80;21.90;;;;;;;3.87;45.69;102051.55;215262;1274;139811;-75
2022/03/21 19:10:55;;;;;;;46.70;21.10;;;;;;;3.75;45.99;102053.52;215117;1274;140199;-73
2022/03/21 19:16:01;;;;;;;64.20;27.60;;;;;;;3.62;46.07;102053.61;215521;1274;139909;-77
2022/03/21 19:21:09;;;;;;;54.30;23.00;;;;;;;3.54;46.50;102053.58;215030;1274;139641;-75
2022/03/21 19:26:14;;;;;;;52.00;26.50;;;;;;;3.40;46.76;102053.23;215245;1274;140335;-80
2022/03/21 19:31:22;;;;;;;52.60;22.00;;;;;;;3.26;47.54;102059.17;216057;1274;140747;-70
2022/03/21 19:36:32;;;;;;;45.70;23.60;;;;;;;3.13;48.20;102063.12;215262;1274;142029;-70
2022/03/21 19:41:42;;;;;;;39.80;22.60;;;;;;;2.98;48.89;102065.06;216309;1273;140497;-72
2022/03/21 19:46:48;;;;;;;45.80;24.10;;;;;;;2.85;49.30;102067.39;216238;1274;140502;-73
2022/03/21 19:51:54;;;;;;;52.90;24.60;;;;;;;2.71;49.21;102074.73;216257;1273;140794;-72
2022/03/21 19:57:01;;;;;;;38.60;22.70;;;;;;;2.48;49.79;102077.13;215412;1274;139758;-73
2022/03/21 20:02:07;;;;;;;47.10;29.80;;;;;;;2.23;50.57;102076.89;215831;1274;140250;-74
2022/03/21 20:07:15;;;;;;;64.00;36.00;;;;;;;2.08;51.08;102077.58;215711;1274;140429;-77
2022/03/21 20:12:18;;;;;;;83.40;38.40;;;;;;;2.02;51.78;102074.52;215390;1274;140506;-75
2022/03/21 20:17:25;;;;;;;81.30;39.00;;;;;;;1.93;51.55;102075.05;215057;1274;140255;-75
2022/03/21 20:22:30;;;;;;;84.30;44.10;;;;;;;1.81;51.52;102072.16;214762;1274;141451;-70
2022/03/21 20:27:36;;;;;;;65.10;35.40;;;;;;;1.74;52.30;102072.45;214613;1274;141614;-68
2022/03/21 20:32:41;;;;;;;87.10;39.90;;;;;;;1.66;52.37;102073.70;214108;1277;140234;-73
2022/03/21 20:37:47;;;;;;;78.60;34.40;;;;;;;1.56;52.28;102077.16;213928;1274;142239;-74
2022/03/21 20:42:54;;;;;;;86.70;41.10;;;;;;;1.31;52.43;102078.38;213406;1273;141685;-71
2022/03/21 20:47:59;;;;;;;105.80;51.60;;;;;;;1.06;53.15;102071.51;215271;1274;140656;-76
2022/03/21 20:53:05;;;;;;;119.20;53.60;;;;;;;0.94;53.39;102072.39;214491;1274;139552;-75
2022/03/21 20:58:10;;;;;;;96.40;48.20;;;;;;;0.96;53.57;102072.29;214708;1275;139654;-77
2022/03/21 21:03:18;;;;;;;112.70;52.80;;;;;;;0.93;53.37;102070.41;214219;1274;140358;-82
2022/03/21 21:08:24;;;;;;;99.90;50.60;;;;;;;0.84;53.59;102071.44;213176;1274;142165;-80
2022/03/21 21:13:31;;;;;;;115.20;53.10;;;;;;;0.79;53.65;102074.30;214116;1276;141400;-81
2022/03/21 21:18:37;;;;;;;123.80;54.90;;;;;;;0.76;54.12;102076.44;214094;1273;141792;-79
2022/03/21 21:23:41;;;;;;;144.50;68.40;;;;;;;0.71;54.42;102075.55;214166;1273;139817;-67
2022/03/21 21:28:46;;;;;;;135.70;63.60;;;;;;;0.68;54.81;102075.47;214774;1274;139968;-71
2022/03/21 21:33:50;;;;;;;129.60;61.30;;;;;;;0.58;54.65;102073.36;215193;1274;141944;-70
2022/03/21 21:38:56;;;;;;;133.70;60.40;;;;;;;0.38;55.03;102068.03;214779;1274;141285;-70
2022/03/21 21:44:01;;;;;;;151.00;65.50;;;;;;;0.22;55.72;102071.29;215184;1273;140045;-72
2022/03/21 21:49:06;;;;;;;123.70;59.00;;;;;;;0.15;55.80;102066.96;214480;1274;139885;-68
2022/03/21 21:54:12;;;;;;;134.20;60.60;;;;;;;0.12;56.12;102069.80;213349;1274;561502;-71
2022/03/21 21:59:16;;;;;;;110.30;56.30;;;;;;;0.07;56.01;102065.41;215714;1276;140405;-65
2022/03/21 22:04:21;;;;;;;109.60;55.90;;;;;;;-0.02;56.23;102064.48;216129;1274;140490;-72
2022/03/21 22:09:25;;;;;;;149.00;66.60;;;;;;;-0.12;56.47;102061.34;215529;1274;141495;-73
2022/03/21 22:14:30;;;;;;;140.80;63.80;;;;;;;-0.18;56.90;102060.73;214389;1274;139903;-68
2022/03/21 22:19:38;;;;;;;129.60;57.00;;;;;;;-0.18;56.92;102058.84;213602;1273;140746;-66
2022/03/21 22:24:43;;;;;;;;;;;;;;;-0.28;56.96;102059.50;215549;1275;140628;-74
2022/03/21 22:29:47;;;;;;;133.30;63.50;;;;;;;-0.42;57.30;102055.12;215424;1274;127549;-71
2022/03/21 22:34:53;;;;;;;133.70;62.60;;;;;;;-0.47;57.59;102055.42;213604;1274;140470;-74
2022/03/21 22:50:45;;;;;;;132.30;65.20;;;;;;;-0.71;58.07;102062.20;213827;1274;139850;-68
2022/03/21 22:55:50;;;;;;;138.20;69.30;;;;;;;-0.76;58.27;102059.20;214296;1274;140777;-67
2022/03/21 23:00:56;;;;;;;144.50;66.60;;;;;;;-0.82;58.25;102067.30;213749;1274;139881;-66
2022/03/21 23:06:03;;;;;;;129.50;59.60;;;;;;;-0.87;58.64;102067.29;214092;1274;140734;-68
2022/03/21 23:11:09;;;;;;;130.30;63.60;;;;;;;-0.94;58.76;102066.25;213668;1272;139796;-68
2022/03/21 23:16:14;;;;;;;155.70;63.60;;;;;;;-1.01;58.84;102067.71;214193;1274;140555;-71
2022/03/21 23:21:18;;;;;;;137.80;63.00;;;;;;;-1.04;59.21;102069.47;214205;1274;141034;-69
2022/03/21 23:26:27;;;;;;;137.40;65.30;;;;;;;-1.08;59.44;102069.92;215550;1272;140227;-68
2022/03/21 23:31:35;;;;;;;145.70;67.00;;;;;;;-1.11;59.79;102073.30;215502;1271;141849;-70
2022/03/21 23:36:43;;;;;;;122.80;59.90;;;;;;;-1.14;59.69;102070.52;214437;1274;142028;-70
2022/03/21 23:47:09;;;;;;;112.70;57.30;;;;;;;-1.09;59.89;102071.53;214715;1273;141576;-70
2022/03/21 23:52:17;;;;;;;101.90;51.10;;;;;;;-1.08;60.30;102074.27;215903;1273;141606;-72